Time;durP1;ratioP1;P1;durP2;ratioP2;P2;SDS_P1;SDS_P2;PMS_P1;PMS_P2;Temp;Humidity;BMP_temperature;BMP_pressure;BME280_temperature;BME280_humidity;BME280_pressure;Samples;Min_cycle;Max_cycle;Signal;HPM_P1;HPM_P2
2023/03/03 00:00:33;;;;;;;;;;;;;;;7.37;82.78;100090.97;5070178;28;19913;-87
2023/03/03 00:03:00;;;;;;;;;;;;;;;7.33;83.45;100087.44;5070255;28;19955;-87
2023/03/03 00:05:25;;;;;;;;;;;;;;;7.29;83.55;100080.44;5070896;28;19912;-90
2023/03/03 00:07:51;;;;;;;;;;;;;;;7.37;83.31;100084.81;5070418;28;19912;-87
2023/03/03 00:10:16;;;;;;;;;;;;;;;7.34;82.91;100080.47;5068776;28;19916;-87
2023/03/03 00:12:46;;;;;;;;;;;;;;;7.31;83.36;100075.19;5069940;28;19919;-87
2023/03/03 00:15:16;;;;;;;;;;;;;;;7.05;83.83;100070.69;5070493;28;19912;-86
2023/03/03 00:17:41;;;;;;;;;;;;;;;6.92;84.84;100069.75;5069408;28;19923;-88
2023/03/03 00:20:39;;;;;;;;;;;;;;;7.03;84.63;100067.19;5069876;28;19928;-88
2023/03/03 00:23:23;;;;;;;;;;;;;;;7.15;84.62;100058.47;5028005;28;19931;-88
2023/03/03 00:25:50;;;;;;;;;;;;;;;7.27;83.45;100057.66;5028839;28;19913;-87
2023/03/03 00:28:15;;;;;;;;;;;;;;;7.38;83.63;100052.47;5031692;28;19936;-87
2023/03/03 00:30:41;;;;;;;;;;;;;;;7.39;83.29;100049.84;5031320;28;20411;-87
2023/03/03 00:33:18;;;;;;;;;;;;;;;7.43;83.07;100038.50;5031437;28;19957;-87
2023/03/03 00:35:43;;;;;;;;;;;;;;;7.40;82.71;100040.22;5031267;28;20004;-87
2023/03/03 00:38:11;;;;;;;;;;;;;;;7.37;82.89;100037.56;5031334;28;19995;-87
2023/03/03 00:40:38;;;;;;;;;;;;;;;7.50;82.73;100027.13;5031018;28;20441;-87
2023/03/03 00:43:23;;;;;;;;;;;;;;;7.47;82.91;100027.13;5031351;28;20029;-87
2023/03/03 00:45:52;;;;;;;;;;;;;;;7.48;82.35;100025.38;5030274;28;19966;-87
2023/03/03 00:48:18;;;;;;;;;;;;;;;7.45;82.52;100020.13;5031624;28;19919;-87
2023/03/03 00:50:43;;;;;;;;;;;;;;;7.51;82.29;100013.13;5031318;28;20294;-88
2023/03/03 00:53:13;;;;;;;;;;;;;;;7.53;82.21;100014.00;5031429;28;19943;-87
2023/03/03 00:55:39;;;;;;;;;;;;;;;7.64;82.39;100010.53;5031034;28;19921;-91
2023/03/03 00:58:05;;;;;;;;;;;;;;;7.63;81.64;100009.66;5042138;28;19916;-85
2023/03/03 01:00:30;;;;;;;;;;;;;;;7.61;81.76;100008.78;5073696;28;19923;-88
2023/03/03 01:02:56;;;;;;;;;;;;;;;7.68;81.65;100010.53;5073523;28;19934;-88
2023/03/03 01:05:22;;;;;;;;;;;;;;;7.71;81.60;100005.31;5073543;28;20364;-87
2023/03/03 01:07:47;;;;;;;;;;;;;;;7.78;81.04;100000.06;5073203;28;20011;-87
2023/03/03 01:10:12;;;;;;;;;;;;;;;7.67;81.00;99995.66;5073495;28;19912;-89
2023/03/03 01:12:38;;;;;;;;;;;;;;;7.58;80.80;99997.41;5072735;28;19916;-89
2023/03/03 01:15:04;;;;;;;;;;;;;;;7.53;80.93;100003.50;5072218;28;19912;-89
2023/03/03 01:17:30;;;;;;;;;;;;;;;7.64;80.73;100008.78;5073032;28;19913;-91
2023/03/03 01:19:55;;;;;;;;;;;;;;;7.68;81.43;100001.81;5072893;28;20298;-87
2023/03/03 01:22:20;;;;;;;;;;;;;;;7.67;81.49;100010.53;5073378;28;20042;-87
2023/03/03 01:24:46;;;;;;;;;;;;;;;7.65;81.52;100004.44;5072927;28;20329;-88
2023/03/03 01:27:11;;;;;;;;;;;;;;;7.61;81.50;100005.28;5073047;28;19912;-88
2023/03/03 01:29:36;;;;;;;;;;;;;;;7.63;80.96;100007.03;5072616;28;19916;-89
2023/03/03 01:32:01;;;;;;;;;;;;;;;7.61;81.32;100000.91;5072347;28;19916;-89
2023/03/03 01:34:27;;;;;;;;;;;;;;;7.57;81.26;100007.03;5072503;28;19923;-87
2023/03/03 01:36:52;;;;;;;;;;;;;;;7.63;80.95;100004.41;5070746;28;20000;-89
2023/03/03 01:39:17;;;;;;;;;;;;;;;7.65;81.32;100001.78;5072148;28;20022;-88
2023/03/03 01:41:43;;;;;;;;;;;;;;;7.61;81.12;100000.91;5072708;28;19935;-88
2023/03/03 01:44:13;;;;;;;;;;;;;;;7.56;81.05;100000.03;5071752;28;20401;-88
2023/03/03 01:46:41;;;;;;;;;;;;;;;7.68;80.85;99994.78;5073067;28;19912;-88
2023/03/03 01:49:11;;;;;;;;;;;;;;;7.66;81.39;99995.66;5072667;28;20286;-88
2023/03/03 01:51:47;;;;;;;;;;;;;;;7.66;81.53;99996.56;5072676;28;20321;-90
2023/03/03 01:54:18;;;;;;;;;;;;;;;7.62;80.65;99993.91;5072698;28;19912;-92
2023/03/03 01:56:44;;;;;;;;;;;;;;;7.57;81.22;99988.66;5068329;28;19913;-91
2023/03/03 01:59:13;;;;;;;;;;;;;;;7.48;81.02;99989.50;5066689;28;19924;-91
2023/03/03 02:01:40;;;;;;;;;;;;;;;7.48;81.24;99988.63;5066137;28;19909;-90
2023/03/03 02:04:05;;;;;;;;;;;;;;;7.48;81.53;99994.75;5055738;28;19920;-89
2023/03/03 02:06:34;;;;;;;;;;;;;;;7.63;81.34;99991.28;5088720;28;19908;-86
2023/03/03 02:09:04;;;;;;;;;;;;;;;7.70;80.92;99982.53;5098269;28;19908;-89
2023/03/03 02:11:31;;;;;;;;;;;;;;;7.70;80.46;99990.41;5088681;28;19916;-91
2023/03/03 02:13:56;;;;;;;;;;;;;;;7.66;80.69;99986.03;5071537;28;19923;-90
2023/03/03 02:16:21;;;;;;;;;;;;;;;7.65;81.33;99986.91;5071712;28;19913;-88
2023/03/03 02:18:47;;;;;;;;;;;;;;;7.63;81.53;99985.16;5072238;28;19948;-91
2023/03/03 02:21:18;;;;;;;;;;;;;;;7.65;80.88;99979.03;5071897;28;20376;-90
2023/03/03 02:23:50;;;;;;;;;;;;;;;7.60;80.76;99980.78;5071581;28;19917;-90
2023/03/03 02:26:17;;;;;;;;;;;;;;;7.59;81.14;99984.28;5070841;28;20406;-89
2023/03/03 02:28:42;;;;;;;;;;;;;;;7.66;80.79;99978.16;5086995;28;19913;-89
2023/03/03 02:31:11;;;;;;;;;;;;;;;7.63;80.05;99980.78;5071496;28;20283;-90
2023/03/03 02:33:37;;;;;;;;;;;;;;;7.65;80.17;99984.28;5071757;28;20374;-90
2023/03/03 02:36:03;;;;;;;;;;;;;;;7.59;80.08;99980.78;5070884;28;20019;-91
2023/03/03 02:38:36;;;;;;;;;;;;;;;7.59;80.23;99979.03;5070170;28;19966;-90
2023/03/03 02:41:20;;;;;;;;;;;;;;;7.44;80.31;99977.22;5071679;28;19912;-90
2023/03/03 02:43:49;;;;;;;;;;;;;;;7.43;81.52;99975.50;5071344;28;19917;-89
2023/03/03 02:46:15;;;;;;;;;;;;;;;7.25;81.66;99971.06;5071340;28;19942;-89
2023/03/03 02:48:40;;;;;;;;;;;;;;;7.31;81.92;99972.84;5070225;28;19920;-91
2023/03/03 02:51:05;;;;;;;;;;;;;;;7.26;82.24;99979.81;5071087;28;19923;-90
2023/03/03 02:53:31;;;;;;;;;;;;;;;7.27;82.07;99973.69;5070916;28;20321;-89
2023/03/03 02:55:56;;;;;;;;;;;;;;;7.29;82.23;99974.56;5071144;28;19916;-90
2023/03/03 02:58:21;;;;;;;;;;;;;;;7.34;81.97;99978.97;5071018;28;19924;-90
2023/03/03 03:00:46;;;;;;;;;;;;;;;6.95;82.84;99975.34;5070772;28;20363;-90
2023/03/03 03:03:12;;;;;;;;;;;;;;;6.84;84.79;99978.78;5070651;28;19912;-90
2023/03/03 03:05:37;;;;;;;;;;;;;;;6.92;84.88;99977.06;5071223;28;20398;-89
2023/03/03 03:08:03;;;;;;;;;;;;;;;7.04;84.54;99976.25;5071241;28;19962;-88
2023/03/03 03:10:28;;;;;;;;;;;;;;;7.01;84.57;99977.09;5070933;28;20425;-88
2023/03/03 03:12:53;;;;;;;;;;;;;;;6.93;85.05;99974.44;5070830;28;20001;-88
2023/03/03 03:15:19;;;;;;;;;;;;;;;6.92;84.95;99971.81;5070682;28;19978;-88
2023/03/03 03:17:44;;;;;;;;;;;;;;;6.87;85.74;99965.69;5071386;28;19912;-88
2023/03/03 03:20:10;;;;;;;;;;;;;;;6.89;85.37;99966.56;5071016;28;19924;-90
2023/03/03 03:22:35;;;;;;;;;;;;;;;6.57;86.67;99964.66;5070526;28;20397;-88
2023/03/03 03:25:00;;;;;;;;;;;;;;;6.61;87.11;99959.44;5071009;28;19913;-89
2023/03/03 03:27:26;;;;;;;;;;;;;;;6.53;88.10;99965.50;5071465;28;19916;-89
2023/03/03 03:29:51;;;;;;;;;;;;;;;6.63;87.81;99959.47;5070456;28;19913;-89
2023/03/03 03:32:17;;;;;;;;;;;;;;;6.71;87.68;99964.75;5070432;28;19923;-89
2023/03/03 03:34:42;;;;;;;;;;;;;;;6.56;87.94;99969.00;5069913;28;19916;-88
2023/03/03 03:37:08;;;;;;;;;;;;;;;6.69;87.93;99964.72;5068823;28;19920;-88
2023/03/03 03:39:34;;;;;;;;;;;;;;;6.78;86.95;99963.88;5070721;28;20396;-89
2023/03/03 03:41:59;;;;;;;;;;;;;;;6.79;86.84;99965.66;5070369;28;19913;-91
2023/03/03 03:44:24;;;;;;;;;;;;;;;6.75;86.92;99966.50;5070527;28;19963;-90
2023/03/03 03:46:50;;;;;;;;;;;;;;;6.91;86.00;99968.31;5070545;28;19912;-92
2023/03/03 03:49:15;;;;;;;;;;;;;;;6.84;86.21;99969.16;5070505;28;19917;-90
2023/03/03 03:51:40;;;;;;;;;;;;;;;6.79;86.21;99965.66;5070163;28;19979;-91
2023/03/03 03:54:06;;;;;;;;;;;;;;;6.71;86.54;99965.59;5070856;28;19937;-88
2023/03/03 03:56:31;;;;;;;;;;;;;;;6.74;86.97;99972.63;5070320;28;19916;-90
2023/03/03 03:58:56;;;;;;;;;;;;;;;6.75;86.74;99963.88;5069945;28;19916;-89
2023/03/03 04:01:22;;;;;;;;;;;;;;;6.81;87.33;99963.91;5072564;28;19924;-90
2023/03/03 04:03:48;;;;;;;;;;;;;;;6.82;86.31;99963.91;5074120;28;19960;-90
2023/03/03 04:06:13;;;;;;;;;;;;;;;6.79;86.37;99966.50;5074560;28;19919;-89
2023/03/03 04:08:39;;;;;;;;;;;;;;;6.68;87.67;99965.59;5074148;28;19954;-89
2023/03/03 04:11:04;;;;;;;;;;;;;;;6.65;87.18;99962.97;5074325;28;20291;-89
2023/03/03 04:13:30;;;;;;;;;;;;;;;6.79;87.37;99966.50;5073748;28;19931;-89
2023/03/03 04:15:56;;;;;;;;;;;;;;;6.83;86.63;99964.81;5074347;28;20014;-89
2023/03/03 04:18:21;;;;;;;;;;;;;;;6.89;86.86;99958.69;5074370;28;20505;-89
2023/03/03 04:20:47;;;;;;;;;;;;;;;6.84;86.55;99965.66;5073935;28;19916;-89
2023/03/03 04:23:13;;;;;;;;;;;;;;;6.79;86.68;99957.78;5074156;28;19924;-89
2023/03/03 04:25:39;;;;;;;;;;;;;;;6.84;86.96;99958.66;5074352;28;19919;-88
2023/03/03 04:28:05;;;;;;;;;;;;;;;6.85;86.54;99949.94;5074439;28;19916;-88
2023/03/03 04:30:30;;;;;;;;;;;;;;;6.88;86.45;99947.34;5074398;28;20455;-89
2023/03/03 04:32:55;;;;;;;;;;;;;;;6.63;87.39;99955.09;5073921;28;20015;-88
2023/03/03 04:35:20;;;;;;;;;;;;;;;6.58;87.92;99946.34;5073174;28;19917;-89
2023/03/03 04:37:46;;;;;;;;;;;;;;;6.44;88.65;99950.59;5073699;28;19978;-88
2023/03/03 04:40:11;;;;;;;;;;;;;;;6.38;89.60;99946.22;5073884;28;19913;-89
2023/03/03 04:42:36;;;;;;;;;;;;;;;6.45;89.46;99950.59;5073652;28;19916;-89
2023/03/03 04:45:02;;;;;;;;;;;;;;;6.51;88.94;99954.16;5073740;28;19939;-89
2023/03/03 04:47:28;;;;;;;;;;;;;;;6.65;89.02;99960.34;5073843;28;20384;-88
2023/03/03 04:49:53;;;;;;;;;;;;;;;6.59;89.04;99958.53;5073499;28;19924;-89
2023/03/03 04:52:18;;;;;;;;;;;;;;;6.82;88.21;99963.03;5071699;28;19924;-89
2023/03/03 04:54:44;;;;;;;;;;;;;;;6.75;87.46;99954.28;5073728;28;19928;-90
2023/03/03 04:57:09;;;;;;;;;;;;;;;6.73;87.76;99956.00;5072856;28;19916;-88
2023/03/03 04:59:34;;;;;;;;;;;;;;;6.60;88.28;99951.59;5073840;28;20003;-88
2023/03/03 05:02:00;;;;;;;;;;;;;;;6.61;88.70;99954.22;5073536;28;20386;-88
2023/03/03 05:04:25;;;;;;;;;;;;;;;6.62;88.99;99961.19;5072625;28;19917;-88
2023/03/03 05:06:50;;;;;;;;;;;;;;;6.64;88.59;99961.19;5072555;28;19931;-89
2023/03/03 05:09:16;;;;;;;;;;;;;;;6.75;88.93;99956.91;5073154;28;20712;-89
2023/03/03 05:11:41;;;;;;;;;;;;;;;6.78;87.88;99961.25;5088139;28;19913;-89
2023/03/03 05:14:07;;;;;;;;;;;;;;;6.75;87.96;99956.00;5073163;28;19919;-89
2023/03/03 05:16:32;;;;;;;;;;;;;;;6.73;87.93;99963.84;5073438;28;19912;-88
2023/03/03 05:18:57;;;;;;;;;;;;;;;6.73;87.80;99966.47;5073177;28;19913;-89
2023/03/03 05:21:23;;;;;;;;;;;;;;;6.68;88.46;99968.22;5072985;28;19938;-88
2023/03/03 05:23:48;;;;;;;;;;;;;;;6.70;88.41;99962.97;5072965;28;19916;-88
2023/03/03 05:26:13;;;;;;;;;;;;;;;6.59;88.73;99958.53;5073041;28;19913;-89
2023/03/03 05:28:39;;;;;;;;;;;;;;;6.59;88.31;99966.41;5072867;28;19912;-89
2023/03/03 05:31:04;;;;;;;;;;;;;;;6.71;88.43;99962.13;5073092;28;20014;-88
2023/03/03 05:33:29;;;;;;;;;;;;;;;6.57;88.90;99960.28;5073075;28;19912;-88
2023/03/03 05:35:55;;;;;;;;;;;;;;;6.71;88.32;99968.22;5073061;28;19923;-88
2023/03/03 05:38:21;;;;;;;;;;;;;;;6.90;87.62;99969.19;5072564;28;19952;-88
2023/03/03 05:40:46;;;;;;;;;;;;;;;6.76;87.77;99971.75;5070520;28;19924;-88
2023/03/03 05:43:11;;;;;;;;;;;;;;;6.73;88.36;99971.72;5071592;28;19913;-89
2023/03/03 05:45:37;;;;;;;;;;;;;;;6.84;87.70;99974.41;5070677;28;20012;-89
2023/03/03 05:48:03;;;;;;;;;;;;;;;7.04;86.87;99971.88;5071188;28;19966;-89
2023/03/03 05:50:29;;;;;;;;;;;;;;;7.01;86.60;99969.22;5069630;28;19969;-88
2023/03/03 05:52:54;;;;;;;;;;;;;;;6.99;86.42;99977.09;5071605;28;19991;-87
2023/03/03 05:55:19;;;;;;;;;;;;;;;6.92;86.37;99977.06;5071338;28;20479;-88
2023/03/03 05:57:45;;;;;;;;;;;;;;;7.01;85.72;99973.59;5072048;28;19908;-88
2023/03/03 06:00:10;;;;;;;;;;;;;;;7.01;85.42;99976.22;5072816;28;19920;-88
2023/03/03 06:02:36;;;;;;;;;;;;;;;7.05;85.53;99970.13;5072154;28;19912;-86
2023/03/03 06:05:01;;;;;;;;;;;;;;;6.99;84.94;99977.09;5072355;28;19908;-89
2023/03/03 06:07:26;;;;;;;;;;;;;;;7.27;84.43;99971.06;5069857;28;19970;-88
2023/03/03 06:09:52;;;;;;;;;;;;;;;7.23;84.51;99982.41;5072333;28;19916;-89
2023/03/03 06:12:17;;;;;;;;;;;;;;;7.31;83.26;99980.72;5072258;28;19912;-88
2023/03/03 06:14:42;;;;;;;;;;;;;;;7.20;83.39;99983.31;5072244;28;20447;-90
2023/03/03 06:17:08;;;;;;;;;;;;;;;7.25;84.47;99981.56;5071702;28;19928;-90
2023/03/03 06:19:33;;;;;;;;;;;;;;;7.30;83.28;99982.44;5072271;28;20266;-88
2023/03/03 06:21:58;;;;;;;;;;;;;;;7.48;82.51;99989.50;5060255;28;19916;-89
2023/03/03 06:24:24;;;;;;;;;;;;;;;7.49;82.08;99988.63;5072518;28;19980;-87
2023/03/03 06:26:50;;;;;;;;;;;;;;;7.51;81.42;99986.88;5073080;28;19908;-91
2023/03/03 06:29:15;;;;;;;;;;;;;;;7.58;80.80;99987.75;5073284;28;19916;-88
2023/03/03 06:31:40;;;;;;;;;;;;;;;7.58;79.73;99987.75;5071291;28;20401;-86
2023/03/03 06:34:06;;;;;;;;;;;;;;;7.60;78.73;99983.41;5072363;28;19912;-86
2023/03/03 06:36:31;;;;;;;;;;;;;;;7.47;78.57;99995.63;5078104;28;19912;-88
2023/03/03 06:38:56;;;;;;;;;;;;;;;7.52;77.97;99990.38;5091706;28;20006;-82
2023/03/03 06:41:21;;;;;;;;;;;;;;;7.49;78.02;99993.88;5091389;28;19900;-86
2023/03/03 06:43:47;;;;;;;;;;;;;;;7.46;77.52;99998.22;5071328;28;19913;-88
2023/03/03 06:46:12;;;;;;;;;;;;;;;7.54;78.85;99993.91;5071926;28;20402;-88
2023/03/03 06:48:38;;;;;;;;;;;;;;;7.70;77.57;99992.16;5071749;28;19916;-86
2023/03/03 06:51:22;;;;;;;;;;;;;;;7.60;77.81;99996.53;5068669;28;19919;-84
2023/03/03 06:53:48;;;;;;;;;;;;;;;7.81;77.41;99994.81;5069774;28;19917;-88
2023/03/03 06:56:14;;;;;;;;;;;;;;;7.85;77.75;99991.31;5070897;28;20011;-88
2023/03/03 06:58:39;;;;;;;;;;;;;;;7.91;76.92;99995.69;5087145;28;20293;-86
2023/03/03 07:01:12;;;;;;;;;;;;;;;7.91;76.36;99993.94;5071157;28;19912;-87
2023/03/03 07:03:37;;;;;;;;;;;;;;;7.97;76.88;100004.47;5070748;28;20313;-87
2023/03/03 07:06:07;;;;;;;;;;;;;;;8.01;76.60;99993.06;5070965;28;19912;-86
2023/03/03 07:08:33;;;;;;;;;;;;;;;8.05;75.81;99996.59;5071001;28;19916;-87
2023/03/03 07:11:01;;;;;;;;;;;;;;;8.19;75.41;99994.81;5070870;28;19919;-86
2023/03/03 07:13:27;;;;;;;;;;;;;;;8.19;75.06;99996.59;5071209;28;20007;-86
2023/03/03 07:15:54;;;;;;;;;;;;;;;8.17;74.76;100000.94;5070614;28;19982;-87
2023/03/03 07:18:22;;;;;;;;;;;;;;;8.07;74.66;100003.56;5060320;28;20005;-86
2023/03/03 07:20:48;;;;;;;;;;;;;;;8.20;74.56;99998.31;5072616;28;19918;-86
2023/03/03 07:23:22;;;;;;;;;;;;;;;8.37;73.75;99999.19;5072169;28;19923;-87
2023/03/03 07:25:48;;;;;;;;;;;;;;;8.33;73.79;99986.94;5066832;28;20306;-90
2023/03/03 07:28:27;;;;;;;;;;;;;;;8.23;73.50;99993.06;5062835;28;19916;-90
2023/03/03 07:30:53;;;;;;;;;;;;;;;8.33;73.82;99989.56;5066523;28;19923;-89
2023/03/03 07:33:23;;;;;;;;;;;;;;;8.49;73.34;99992.19;5070154;28;19916;-86
2023/03/03 07:35:49;;;;;;;;;;;;;;;8.53;72.19;99983.44;5070748;28;20379;-91
2023/03/03 07:38:24;;;;;;;;;;;;;;;8.58;71.65;99989.53;5068643;28;19931;-85
2023/03/03 07:40:53;;;;;;;;;;;;;;;8.50;71.79;99991.31;5069815;28;19989;-91
2023/03/03 07:43:28;;;;;;;;;;;;;;;8.62;70.78;99987.78;5069013;28;19939;-88
2023/03/03 07:45:56;;;;;;;;;;;;;;;8.54;71.07;99987.78;5069260;28;20428;-89
2023/03/03 07:48:29;;;;;;;;;;;;;;;8.21;73.36;99992.19;5070265;28;19922;-87
2023/03/03 07:50:55;;;;;;;;;;;;;;;8.31;73.34;99991.31;5068413;28;19917;-86
2023/03/03 07:53:25;;;;;;;;;;;;;;;8.49;72.80;99995.69;5070050;28;19959;-86
2023/03/03 07:55:50;;;;;;;;;;;;;;;8.60;73.76;99986.03;5069793;28;19968;-85
2023/03/03 07:58:18;;;;;;;;;;;;;;;8.51;74.27;99985.16;5070415;28;19955;-82
2023/03/03 08:00:43;;;;;;;;;;;;;;;8.82;73.00;99980.72;5069409;28;19916;-86
2023/03/03 08:03:19;;;;;;;;;;;;;;;8.87;72.41;99978.94;5067765;28;19916;-85
2023/03/03 08:05:49;;;;;;;;;;;;;;;8.97;70.72;99982.41;5070792;28;19958;-85
2023/03/03 08:08:23;;;;;;;;;;;;;;;9.05;70.64;99962.22;5068955;28;19920;-86
2023/03/03 08:10:51;;;;;;;;;;;;;;;9.39;70.17;99967.31;5070678;28;20015;-86
2023/03/03 08:13:20;;;;;;;;;;;;;;;9.37;69.85;99958.53;5069706;28;19912;-85
2023/03/03 08:15:49;;;;;;;;;;;;;;;9.32;69.52;99968.22;5070072;28;20390;-85
2023/03/03 08:18:18;;;;;;;;;;;;;;;9.29;68.70;99962.97;5070148;28;20342;-85
2023/03/03 08:20:45;;;;;;;;;;;;;;;9.31;68.86;99959.44;5070455;28;19939;-85
2023/03/03 08:23:10;;;;;;;;;;;;;;;9.61;68.83;99960.13;5069645;28;19920;-85
2023/03/03 08:25:36;;;;;;;;;;;;;;;9.90;68.40;99952.88;5069224;28;19967;-85
2023/03/03 08:28:01;;;;;;;;;;;;;;;10.01;68.56;99951.06;5069389;28;19952;-85
2023/03/03 08:30:27;;;;;;;;;;;;;;;10.02;68.41;99951.03;5069532;28;20370;-89
2023/03/03 08:32:52;;;;;;;;;;;;;;;10.00;67.55;99946.66;5068687;28;19923;-85
2023/03/03 08:35:17;;;;;;;;;;;;;;;10.06;67.67;99951.03;5069537;28;19924;-84
2023/03/03 08:37:42;;;;;;;;;;;;;;;10.10;68.39;99943.06;5069372;28;19969;-83
2023/03/03 08:40:08;;;;;;;;;;;;;;;10.37;67.39;99939.31;5069717;28;20437;-81
2023/03/03 08:42:33;;;;;;;;;;;;;;;10.29;66.62;99935.00;5069469;28;19917;-83
2023/03/03 08:44:59;;;;;;;;;;;;;;;10.36;66.67;99937.59;5069775;28;19931;-81
2023/03/03 08:47:24;;;;;;;;;;;;;;;10.10;66.56;99929.00;5070890;28;20302;-82
2023/03/03 08:49:50;;;;;;;;;;;;;;;9.92;66.41;99932.69;5073255;28;19923;-82
2023/03/03 08:52:15;;;;;;;;;;;;;;;9.82;66.19;99927.50;5072663;28;19916;-83
2023/03/03 08:54:40;;;;;;;;;;;;;;;9.99;66.74;99926.47;5073150;28;19920;-82
2023/03/03 08:57:05;;;;;;;;;;;;;;;9.95;67.16;99932.66;5071372;28;19912;-84
2023/03/03 08:59:36;;;;;;;;;;;;;;;9.91;67.22;99934.44;5086619;28;19917;-83
2023/03/03 09:02:01;;;;;;;;;;;;;;;9.99;68.44;99934.38;5071809;28;19912;-85
2023/03/03 09:04:27;;;;;;;;;;;;;;;10.01;68.65;99932.63;5072314;28;19920;-85
2023/03/03 09:06:52;;;;;;;;;;;;;;;9.94;68.12;99936.19;5073144;28;19961;-83
2023/03/03 09:09:19;;;;;;;;;;;;;;;10.21;67.51;99922.75;5067915;28;19916;-93
2023/03/03 09:11:46;;;;;;;;;;;;;;;10.20;66.76;99930.66;5072418;28;20279;-84
2023/03/03 09:14:13;;;;;;;;;;;;;;;10.24;66.22;99932.41;5071628;28;19920;-83
2023/03/03 09:16:40;;;;;;;;;;;;;;;10.24;66.73;99934.13;5070240;28;19919;-83
2023/03/03 09:19:15;;;;;;;;;;;;;;;10.00;66.78;99933.50;5069855;28;19924;-84
2023/03/03 09:21:41;;;;;;;;;;;;;;;9.90;67.49;99931.81;5069871;28;19998;-85
2023/03/03 09:24:15;;;;;;;;;;;;;;;9.82;68.39;99931.88;5071171;28;20014;-85
2023/03/03 09:26:47;;;;;;;;;;;;;;;9.71;69.85;99924.06;5069862;28;19966;-84
2023/03/03 09:29:12;;;;;;;;;;;;;;;9.73;70.04;99922.31;5071847;28;19940;-86
2023/03/03 09:31:40;;;;;;;;;;;;;;;9.72;70.83;99923.19;5070208;28;19951;-86
2023/03/03 09:34:19;;;;;;;;;;;;;;;9.66;70.33;99915.31;5072133;28;19985;-85
2023/03/03 09:36:44;;;;;;;;;;;;;;;8.87;74.26;99907.03;5071921;28;19917;-85
2023/03/03 09:39:29;;;;;;;;;;;;;;;8.71;75.55;99908.84;5072199;28;19923;-84
2023/03/03 09:42:09;;;;;;;;;;;;;;;8.64;76.63;99907.16;5071895;28;19916;-85
2023/03/03 09:44:41;;;;;;;;;;;;;;;8.60;78.25;99911.50;5072176;28;19912;-85
2023/03/03 09:47:27;;;;;;;;;;;;;;;8.65;77.72;99912.41;5072201;28;19935;-88
2023/03/03 09:49:56;;;;;;;;;;;;;;;9.05;77.89;99912.22;5071102;28;20463;-83
2023/03/03 09:52:40;;;;;;;;;;;;;;;9.07;77.18;99902.53;5072121;28;20022;-85
2023/03/03 09:55:24;;;;;;;;;;;;;;;9.01;74.63;99910.47;5072156;28;19934;-84
2023/03/03 09:57:52;;;;;;;;;;;;;;;8.78;73.63;99908.81;5070964;28;20032;-86
2023/03/03 10:00:50;;;;;;;;;;;;;;;9.35;72.37;99912.03;5071137;28;19913;-84
2023/03/03 10:03:15;;;;;;;;;;;;;;;9.31;72.37;99908.53;5029147;28;19920;-83
2023/03/03 10:05:52;;;;;;;;;;;;;;;9.22;72.83;99905.97;5029616;28;19964;-84
2023/03/03 10:08:23;;;;;;;;;;;;;;;9.34;74.60;99907.66;5029363;28;20423;-83
2023/03/03 10:10:54;;;;;;;;;;;;;;;9.14;74.97;99914.81;5029587;28;20420;-83
2023/03/03 10:13:24;;;;;;;;;;;;;;;9.03;75.47;99906.06;5029192;28;19917;-84
2023/03/03 10:16:16;;;;;;;;;;;;;;;9.18;74.41;99912.16;5029679;28;19924;-83
2023/03/03 10:18:48;;;;;;;;;;;;;;;9.22;74.80;99904.22;5021460;28;19913;-83
2023/03/03 10:21:36;;;;;;;;;;;;;;;9.44;74.17;99907.59;5028721;28;19924;-84
2023/03/03 10:24:11;;;;;;;;;;;;;;;9.34;74.62;99894.50;4978148;28;19917;-86
2023/03/03 10:26:56;;;;;;;;;;;;;;;9.46;73.95;99897.03;4989834;28;19957;-83
2023/03/03 10:29:25;;;;;;;;;;;;;;;9.21;74.57;99891.94;4989017;28;19918;-83
2023/03/03 10:32:05;;;;;;;;;;;;;;;8.97;74.01;99890.31;4983894;28;20426;-83
2023/03/03 10:34:30;;;;;;;;;;;;;;;9.13;72.81;99891.13;4976475;28;20074;-83
2023/03/03 10:37:09;;;;;;;;;;;;;;;9.08;73.48;99892.88;4985309;28;19953;-83
2023/03/03 10:39:54;;;;;;;;;;;;;;;9.07;73.05;99883.25;5007393;28;19914;-84
2023/03/03 10:42:30;;;;;;;;;;;;;;;9.15;72.75;99878.81;5012952;28;19979;-83
2023/03/03 10:44:55;;;;;;;;;;;;;;;9.25;73.41;99884.88;5017580;28;19913;-88
2023/03/03 10:47:37;;;;;;;;;;;;;;;9.32;73.96;99879.56;5020417;28;20506;-84
2023/03/03 10:50:25;;;;;;;;;;;;;;;9.61;72.18;99881.13;5024487;28;19917;-85
2023/03/03 10:52:51;;;;;;;;;;;;;;;9.96;71.57;99871.16;4990470;28;19928;-84
2023/03/03 10:55:55;;;;;;;;;;;;;;;10.11;71.65;99864.84;5006101;28;19913;-83
2023/03/03 10:58:21;;;;;;;;;;;;;;;10.22;70.32;99855.06;4950965;29;19915;-82
2023/03/03 11:00:56;;;;;;;;;;;;;;;10.01;70.94;99854.41;4951463;29;20005;-83
2023/03/03 11:03:30;;;;;;;;;;;;;;;10.38;69.46;99848.78;4950792;29;19946;-85
2023/03/03 11:05:58;;;;;;;;;;;;;;;10.38;70.43;99851.41;4952139;29;19914;-82
2023/03/03 11:08:36;;;;;;;;;;;;;;;10.20;71.43;99849.81;4953909;29;20443;-81
2023/03/03 11:11:09;;;;;;;;;;;;;;;10.34;68.66;99848.81;4953313;28;19966;-86
2023/03/03 11:13:47;;;;;;;;;;;;;;;10.06;66.85;99843.81;4950197;29;20077;-88
2023/03/03 11:16:21;;;;;;;;;;;;;;;10.40;66.42;99835.56;4949794;29;19992;-90
2023/03/03 11:18:53;;;;;;;;;;;;;;;10.53;65.80;99833.63;4949027;28;20449;-87
2023/03/03 11:21:31;;;;;;;;;;;;;;;10.53;64.72;99838.91;4951095;28;20064;-85
2023/03/03 11:24:19;;;;;;;;;;;;;;;10.25;65.58;99838.34;4950096;28;19921;-85
2023/03/03 11:26:45;;;;;;;;;;;;;;;10.60;64.96;99830.03;4948301;29;20403;-86
2023/03/03 11:29:15;;;;;;;;;;;;;;;10.59;64.93;99832.69;4991007;28;19942;-86
2023/03/03 11:31:41;;;;;;;;;;;;;;;10.70;66.57;99829.00;5066811;28;19999;-83
2023/03/03 11:34:09;;;;;;;;;;;;;;;10.91;65.65;99825.22;5069947;28;20066;-84
2023/03/03 11:36:41;;;;;;;;;;;;;;;10.88;64.74;99825.25;5069360;28;19920;-84
2023/03/03 11:39:08;;;;;;;;;;;;;;;10.75;64.25;99824.56;5069998;28;20025;-85
2023/03/03 11:41:33;;;;;;;;;;;;;;;10.59;63.63;99827.44;5069536;28;19928;-89
2023/03/03 11:44:22;;;;;;;;;;;;;;;10.47;64.03;99809.97;5068712;28;20306;-86
2023/03/03 11:46:55;;;;;;;;;;;;;;;10.32;65.22;99814.53;5026590;28;19917;-86
2023/03/03 11:49:44;;;;;;;;;;;;;;;10.16;63.86;99810.31;5026985;28;19948;-86
2023/03/03 11:52:15;;;;;;;;;;;;;;;10.13;64.90;99803.34;5010402;28;20379;-84
2023/03/03 11:54:59;;;;;;;;;;;;;;;10.33;64.38;99805.78;5007764;28;20009;-85
2023/03/03 11:57:43;;;;;;;;;;;;;;;10.78;64.78;99807.78;5008624;28;19929;-87
2023/03/03 12:00:09;;;;;;;;;;;;;;;10.16;65.84;99797.13;5008301;28;19968;-85
2023/03/03 12:02:44;;;;;;;;;;;;;;;10.01;66.21;99800.84;5024020;28;19956;-87
2023/03/03 12:05:12;;;;;;;;;;;;;;;9.95;65.42;99795.63;5008264;28;20483;-85
2023/03/03 12:07:38;;;;;;;;;;;;;;;10.36;65.62;99789.91;5019998;28;19912;-86
2023/03/03 12:10:12;;;;;;;;;;;;;;;10.33;66.05;99789.94;5016470;28;19920;-85
2023/03/03 12:12:43;;;;;;;;;;;;;;;10.74;64.38;99791.16;5013417;28;19917;-85
2023/03/03 12:15:08;;;;;;;;;;;;;;;10.86;62.48;99795.38;5026972;28;19972;-84
2023/03/03 12:17:45;;;;;;;;;;;;;;;10.69;61.68;99792.09;5007886;28;19913;-90
2023/03/03 12:20:16;;;;;;;;;;;;;;;10.31;62.76;99789.03;5008190;28;19956;-86
2023/03/03 12:22:42;;;;;;;;;;;;;;;10.50;62.26;99783.56;5012834;28;20320;-85
2023/03/03 12:25:13;;;;;;;;;;;;;;;10.65;62.12;99787.78;5067197;28;19923;-89
2023/03/03 12:27:47;;;;;;;;;;;;;;;10.97;62.87;99779.38;5073145;28;19912;-86
2023/03/03 12:30:13;;;;;;;;;;;;;;;10.99;62.63;99776.72;5073477;28;20397;-85
2023/03/03 12:32:38;;;;;;;;;;;;;;;10.97;62.88;99786.41;5073736;28;19956;-86
2023/03/03 12:35:12;;;;;;;;;;;;;;;10.76;63.83;99783.22;5073310;28;19920;-86
2023/03/03 12:37:37;;;;;;;;;;;;;;;10.77;63.54;99776.16;5073546;28;19918;-86
2023/03/03 12:40:32;;;;;;;;;;;;;;;10.30;64.15;99784.69;5073070;28;20006;-85
2023/03/03 12:43:15;;;;;;;;;;;;;;;10.18;64.37;99784.84;4992998;28;20410;-85
2023/03/03 12:46:10;;;;;;;;;;;;;;;10.42;64.96;99786.31;4992160;28;20024;-86
2023/03/03 12:48:42;;;;;;;;;;;;;;;10.51;65.40;99787.97;4971279;28;19924;-86
2023/03/03 12:51:34;;;;;;;;;;;;;;;10.32;64.32;99782.03;4966897;28;19915;-87
2023/03/03 12:54:08;;;;;;;;;;;;;;;10.29;64.87;99782.06;4964066;28;20047;-89
2023/03/03 12:56:39;;;;;;;;;;;;;;;9.72;67.33;99777.44;4962068;28;20059;-85
2023/03/03 12:59:12;;;;;;;;;;;;;;;9.73;67.24;99777.41;4959093;28;19920;-84
2023/03/03 13:01:38;;;;;;;;;;;;;;;9.76;67.08;99772.13;4953363;29;20396;-87